createdAt,value
2016-10-04T09:20:47.282Z,528
2016-10-04T09:21:27.059Z,528
2016-10-04T09:22:07.719Z,528
2016-10-04T09:22:48.485Z,528
2016-10-04T09:23:29.223Z,528
2016-10-04T09:24:09.937Z,528
2016-10-04T09:24:50.678Z,532
2016-10-04T09:25:31.345Z,504
2016-10-04T09:26:12.039Z,532
2016-10-04T09:26:52.745Z,540
2016-10-04T09:27:33.413Z,536
2016-10-04T09:28:14.071Z,536
2016-10-04T09:28:54.786Z,540
2016-10-04T09:29:35.849Z,540
2016-10-04T09:30:16.443Z,560
2016-10-04T09:30:57.181Z,560
2016-10-04T09:31:38.724Z,564
2016-10-04T09:32:19.400Z,560
2016-10-04T09:33:00.104Z,564
2016-10-04T09:33:40.845Z,564
2016-10-04T09:34:21.570Z,560
2016-10-04T09:35:02.255Z,564
2016-10-04T09:35:42.973Z,560
2016-10-04T09:36:23.644Z,560
2016-10-04T09:37:04.334Z,560
2016-10-04T09:37:45.040Z,564
2016-10-04T09:38:25.771Z,564
2016-10-04T09:39:06.442Z,564
2016-10-04T09:39:47.182Z,564
2016-10-04T09:40:27.884Z,564
2016-10-04T09:41:08.525Z,560
2016-10-04T09:41:49.288Z,560
2016-10-04T09:42:29.977Z,552
2016-10-04T09:43:10.696Z,548
2016-10-04T09:43:51.378Z,548
2016-10-04T09:44:32.081Z,552
2016-10-04T09:45:12.737Z,560
2016-10-04T09:45:53.438Z,556
2016-10-04T09:46:34.146Z,556
2016-10-04T09:47:14.840Z,556
2016-10-04T09:47:55.512Z,556
2016-10-04T09:48:36.220Z,548
2016-10-04T09:49:16.931Z,544
2016-10-04T09:49:57.609Z,548
2016-10-04T09:50:38.276Z,544
2016-10-04T09:51:18.986Z,548
2016-10-04T09:51:59.703Z,548
2016-10-04T09:52:40.360Z,544
2016-10-04T09:53:21.077Z,548
2016-10-04T09:54:01.776Z,544
2016-10-04T09:54:42.462Z,548
2016-10-04T09:55:23.114Z,544
2016-10-04T09:56:03.835Z,544
2016-10-04T09:56:44.508Z,544
2016-10-04T09:57:25.163Z,540
2016-10-04T09:58:05.831Z,548
2016-10-04T09:58:46.545Z,552
2016-10-04T09:59:27.217Z,552
2016-10-04T10:00:07.897Z,552
2016-10-04T10:00:48.618Z,552
2016-10-04T10:01:29.263Z,552
2016-10-04T10:02:09.972Z,552
2016-10-04T10:02:50.610Z,552
2016-10-04T10:03:31.285Z,552
2016-10-04T10:04:11.967Z,552
2016-10-04T10:04:52.649Z,552
2016-10-04T10:05:33.306Z,552
2016-10-04T10:06:13.948Z,556
2016-10-04T10:06:54.654Z,548
2016-10-04T10:07:35.333Z,548
2016-10-04T10:08:16.039Z,552
2016-10-04T10:08:56.672Z,552
2016-10-04T10:09:37.408Z,548
2016-10-04T10:10:18.068Z,544
2016-10-04T10:10:58.747Z,544
2016-10-04T10:11:39.421Z,548
2016-10-04T10:12:20.095Z,548
2016-10-04T10:13:00.801Z,552
2016-10-04T10:13:41.532Z,544
2016-10-04T10:14:22.235Z,548
2016-10-04T10:15:02.879Z,544
2016-10-04T10:15:43.579Z,548
2016-10-04T10:16:24.241Z,544
2016-10-04T10:17:04.918Z,548
2016-10-04T10:17:45.583Z,548
2016-10-04T10:18:26.289Z,548
2016-10-04T10:19:06.961Z,540
2016-10-04T10:19:47.669Z,536
2016-10-04T10:20:28.395Z,540
2016-10-04T10:21:09.116Z,544
2016-10-04T10:21:49.808Z,548
2016-10-04T10:22:30.483Z,548
2016-10-04T10:23:11.208Z,552
2016-10-04T10:23:51.932Z,548
2016-10-04T10:24:32.611Z,536
2016-10-04T10:25:13.291Z,540
2016-10-04T10:25:53.980Z,552
2016-10-04T10:26:34.697Z,552
2016-10-04T10:27:15.394Z,544
2016-10-04T10:27:56.119Z,544
2016-10-04T10:28:36.777Z,540
2016-10-04T10:29:17.495Z,536
2016-10-04T10:29:58.168Z,540
2016-10-04T10:30:38.873Z,540
2016-10-04T10:31:19.604Z,548
2016-10-04T10:32:01.061Z,536
2016-10-04T10:32:40.991Z,548
2016-10-04T10:33:21.631Z,544
2016-10-04T10:34:02.305Z,548
2016-10-04T10:34:42.989Z,544
2016-10-04T10:35:23.690Z,544
2016-10-04T10:36:05.058Z,548
2016-10-04T10:36:51.652Z,544
2016-10-04T10:37:32.386Z,548
2016-10-04T10:38:13.054Z,552
2016-10-04T10:38:53.754Z,552
2016-10-04T10:39:34.439Z,552
2016-10-04T10:40:15.129Z,548
2016-10-04T10:40:55.839Z,548
2016-10-04T10:41:36.495Z,540
2016-10-04T10:42:17.222Z,540
2016-10-04T10:42:57.899Z,544
2016-10-04T10:43:38.555Z,544
2016-10-04T10:44:19.317Z,544
2016-10-04T10:45:00.073Z,540
2016-10-04T10:45:40.727Z,556
2016-10-04T10:46:21.454Z,536
2016-10-04T10:47:02.181Z,548
2016-10-04T10:47:42.922Z,548
2016-10-04T10:48:23.633Z,548
2016-10-04T10:49:04.289Z,532
2016-10-04T10:49:44.972Z,544
2016-10-04T10:50:25.705Z,540
2016-10-04T10:51:06.407Z,552
2016-10-04T10:51:47.060Z,556
2016-10-04T10:52:27.733Z,556
2016-10-04T10:53:08.400Z,556
2016-10-04T10:53:49.317Z,544
2016-10-04T10:54:30.003Z,552
2016-10-04T10:55:10.705Z,556
2016-10-04T10:55:51.383Z,556
2016-10-04T10:56:32.066Z,544
2016-10-04T10:57:12.771Z,552
2016-10-04T10:57:53.458Z,548
2016-10-04T10:58:34.136Z,556
2016-10-04T10:59:14.853Z,540
2016-10-04T11:00:07.573Z,548
2016-10-04T11:00:48.325Z,544
2016-10-04T11:01:29.061Z,548
2016-10-04T11:02:09.714Z,544
2016-10-04T11:02:50.431Z,548
2016-10-04T11:03:31.146Z,552
2016-10-04T11:04:11.874Z,548
2016-10-04T11:04:52.754Z,548
2016-10-04T11:05:33.495Z,548
2016-10-04T11:06:18.965Z,544
2016-10-04T11:06:59.646Z,544
2016-10-04T11:07:40.331Z,548
2016-10-04T11:08:21.085Z,548
2016-10-04T11:09:01.757Z,540
2016-10-04T11:09:42.422Z,536
2016-10-04T11:10:23.108Z,540
2016-10-04T11:11:03.752Z,544
2016-10-04T11:11:44.462Z,552
2016-10-04T11:13:57.802Z,544
2016-10-04T11:14:38.512Z,544
2016-10-04T11:15:19.209Z,544
2016-10-04T11:15:59.893Z,544
2016-10-04T11:16:40.566Z,540
2016-10-04T11:17:21.222Z,536
2016-10-04T11:18:02.602Z,548
2016-10-04T11:18:42.640Z,540
2016-10-04T11:19:23.312Z,544
2016-10-04T11:20:04.001Z,552
2016-10-04T11:20:44.658Z,548
2016-10-04T11:21:25.405Z,548
2016-10-04T11:22:06.086Z,548
2016-10-04T11:22:46.789Z,548
2016-10-04T11:23:27.465Z,544
2016-10-04T11:24:08.146Z,552
2016-10-04T11:24:48.802Z,548
2016-10-04T11:25:29.486Z,548
2016-10-04T11:26:11.102Z,516
2016-10-04T11:26:50.881Z,512
2016-10-04T11:27:31.524Z,516
2016-10-04T11:28:12.262Z,544
2016-10-04T11:28:52.933Z,536
2016-10-04T11:29:33.621Z,548
2016-10-04T11:30:14.353Z,528
2016-10-04T11:30:55.084Z,560
2016-10-04T11:31:35.786Z,564
2016-10-04T11:32:16.481Z,564
2016-10-04T11:32:57.198Z,560
2016-10-04T11:33:37.912Z,560
2016-10-04T11:34:18.549Z,564
2016-10-04T11:34:59.251Z,564
2016-10-04T11:35:39.923Z,564
2016-10-04T11:36:20.639Z,556
2016-10-04T11:37:01.343Z,560
2016-10-04T11:37:42.041Z,552
2016-10-04T11:38:22.685Z,556
2016-10-04T11:39:03.347Z,556
2016-10-04T11:39:44.871Z,564
2016-10-04T11:40:25.525Z,560
2016-10-04T11:41:06.237Z,556
2016-10-04T11:41:46.927Z,560
2016-10-04T11:42:27.595Z,556
2016-10-04T11:43:08.272Z,556
2016-10-04T11:43:48.972Z,560
2016-10-04T11:44:29.651Z,560
2016-10-04T11:45:10.343Z,556
2016-10-04T11:45:51.061Z,556
2016-10-04T11:46:31.774Z,556
2016-10-04T11:47:12.504Z,556
2016-10-04T11:47:53.189Z,560
2016-10-04T11:48:33.900Z,556
2016-10-04T11:49:14.633Z,552
2016-10-04T11:49:55.294Z,552
2016-10-04T11:50:36.001Z,556
2016-10-04T11:51:16.704Z,552
2016-10-04T11:51:57.375Z,552
2016-10-04T11:52:38.063Z,548
2016-10-04T11:53:18.786Z,552
2016-10-04T11:53:59.480Z,552
2016-10-04T11:54:40.187Z,544
2016-10-04T11:55:20.838Z,548
2016-10-04T11:56:01.525Z,544
2016-10-04T11:56:42.206Z,544
2016-10-04T11:57:22.922Z,540
2016-10-04T11:58:03.611Z,544
2016-10-04T11:58:44.315Z,544
2016-10-04T11:59:25.033Z,548
2016-10-04T12:00:05.735Z,544
2016-10-04T12:00:46.424Z,544
2016-10-04T12:01:27.114Z,552
2016-10-04T12:02:07.769Z,548
2016-10-04T12:02:48.458Z,548
2016-10-04T12:03:29.111Z,552
2016-10-04T12:04:09.803Z,548
2016-10-04T12:04:50.507Z,548
2016-10-04T12:05:31.180Z,540
2016-10-04T12:06:11.901Z,548
2016-10-04T12:06:52.610Z,548
2016-10-04T12:07:33.306Z,548
2016-10-04T12:08:13.971Z,544
2016-10-04T12:08:54.662Z,544
2016-10-04T12:09:35.376Z,548
2016-10-04T12:10:16.029Z,540
2016-10-04T12:10:56.691Z,540
2016-10-04T12:11:37.385Z,544
2016-10-04T12:12:18.103Z,536
2016-10-04T12:12:58.805Z,536
2016-10-04T12:13:39.497Z,548
2016-10-04T12:14:20.232Z,532
2016-10-04T12:15:01.001Z,544
2016-10-04T12:15:41.687Z,548
2016-10-04T12:16:22.378Z,544
2016-10-04T12:17:03.112Z,548
2016-10-04T12:17:43.878Z,544
2016-10-04T12:18:24.579Z,548
2016-10-04T12:19:05.271Z,548
2016-10-04T12:19:46.728Z,548
2016-10-04T12:20:27.450Z,548
2016-10-04T12:21:08.137Z,548
2016-10-04T12:21:48.852Z,540
2016-10-04T12:22:29.546Z,544
2016-10-04T12:23:10.213Z,548
2016-10-04T12:23:50.881Z,544
2016-10-04T12:24:31.645Z,532
2016-10-04T12:25:12.362Z,548
2016-10-04T12:25:53.019Z,544
2016-10-04T12:26:33.714Z,544
2016-10-04T12:27:14.393Z,544
2016-10-04T12:27:55.125Z,548
2016-10-04T12:28:35.830Z,544
2016-10-04T12:29:16.501Z,540
2016-10-04T12:29:57.192Z,540
2016-10-04T12:30:37.928Z,544
2016-10-04T12:31:18.625Z,544
2016-10-04T12:31:59.381Z,544
2016-10-04T12:32:40.043Z,544
2016-10-04T12:33:20.706Z,548
2016-10-04T12:34:02.140Z,540
2016-10-04T12:34:42.133Z,544
2016-10-04T12:35:22.863Z,548
2016-10-04T12:36:03.526Z,556
2016-10-04T12:36:44.258Z,548
2016-10-04T12:37:24.936Z,552
2016-10-04T12:38:05.634Z,552
2016-10-04T12:38:46.297Z,548
2016-10-04T12:39:27.037Z,548
2016-10-04T12:40:07.775Z,548
2016-10-04T12:40:48.466Z,552
2016-10-04T12:41:29.172Z,552
2016-10-04T12:42:09.943Z,556
2016-10-04T12:42:50.660Z,552
2016-10-04T12:43:33.184Z,544
2016-10-04T12:44:13.792Z,548
2016-10-04T12:44:54.498Z,548
2016-10-04T12:45:35.203Z,532
2016-10-04T12:46:16.649Z,536
2016-10-04T12:46:57.212Z,544
2016-10-04T12:47:37.872Z,544
2016-10-04T12:48:18.547Z,548
2016-10-04T12:48:59.272Z,544
2016-10-04T12:49:39.946Z,544
2016-10-04T12:50:20.731Z,544
2016-10-04T12:51:01.410Z,548
2016-10-04T12:51:42.204Z,544
2016-10-04T12:52:22.838Z,544
2016-10-04T12:53:03.506Z,544
2016-10-04T12:53:45.149Z,544
2016-10-04T12:54:25.032Z,544
2016-10-04T12:55:05.743Z,544
2016-10-04T12:55:46.475Z,548
2016-10-04T12:56:27.191Z,524
2016-10-04T12:57:07.859Z,528
2016-10-04T12:57:49.325Z,540
2016-10-04T12:58:30.019Z,528
2016-10-04T12:59:10.709Z,540
2016-10-04T12:59:51.397Z,536
2016-10-04T13:00:32.093Z,496
2016-10-04T13:01:12.781Z,552
2016-10-04T13:01:53.470Z,552
2016-10-04T13:02:34.159Z,552
2016-10-04T13:03:21.631Z,532
2016-10-04T13:04:02.379Z,552
2016-10-04T13:04:43.059Z,552
2016-10-04T13:05:23.827Z,552
2016-10-04T13:06:04.481Z,552
2016-10-04T13:06:45.215Z,552
2016-10-04T13:07:25.962Z,552
2016-10-04T13:08:06.703Z,552
2016-10-04T13:08:47.407Z,552
2016-10-04T13:09:28.105Z,552
2016-10-04T13:10:08.855Z,552
2016-10-04T13:10:49.449Z,552
2016-10-04T13:11:30.153Z,548
2016-10-04T13:12:10.914Z,548
2016-10-04T13:12:51.637Z,544
2016-10-04T13:13:32.350Z,548
2016-10-04T13:14:13.138Z,548
2016-10-04T13:14:53.914Z,552
2016-10-04T13:15:34.617Z,548
2016-10-04T13:16:15.336Z,552
2016-10-04T13:16:56.031Z,548
2016-10-04T13:17:36.780Z,540
2016-10-04T13:18:17.425Z,548
2016-10-04T13:18:58.115Z,548
2016-10-04T13:19:38.796Z,548
2016-10-04T13:20:19.526Z,540
2016-10-04T13:21:01.010Z,548
2016-10-04T13:21:42.250Z,536
2016-10-04T13:22:23.013Z,544
2016-10-04T13:23:03.813Z,544
2016-10-04T13:23:44.567Z,544
2016-10-04T13:24:25.257Z,544
2016-10-04T13:25:05.939Z,544
2016-10-04T13:25:46.692Z,548
2016-10-04T13:26:27.367Z,548
2016-10-04T13:27:08.078Z,548
2016-10-04T13:27:48.743Z,548
2016-10-04T13:28:29.467Z,544
2016-10-04T13:29:10.154Z,552
2016-10-04T13:29:50.867Z,552
2016-10-04T13:30:31.545Z,552
2016-10-04T13:31:12.235Z,540
2016-10-04T13:31:52.938Z,552
2016-10-04T13:32:33.642Z,548
2016-10-04T13:33:14.365Z,544
2016-10-04T13:33:55.049Z,544
2016-10-04T13:34:35.747Z,548
2016-10-04T13:35:16.525Z,544
2016-10-04T13:35:57.188Z,548
2016-10-04T13:36:37.930Z,544
2016-10-04T13:37:18.611Z,544
2016-10-04T13:37:59.323Z,548
2016-10-04T13:38:40.707Z,548
2016-10-04T13:39:21.361Z,548
2016-10-04T13:40:02.099Z,548
2016-10-04T13:40:42.838Z,544
2016-10-04T13:41:23.496Z,552
2016-10-04T13:42:04.253Z,552
2016-10-04T13:42:44.939Z,540
2016-10-04T13:43:25.628Z,540
2016-10-04T13:44:06.353Z,544
2016-10-04T13:44:47.017Z,548
2016-10-04T13:45:27.865Z,544
2016-10-04T13:46:08.566Z,548
2016-10-04T13:46:49.270Z,544
2016-10-04T13:47:29.961Z,544
2016-10-04T13:48:10.667Z,544
2016-10-04T13:48:51.366Z,548
2016-10-04T13:49:32.062Z,544
2016-10-04T13:50:12.770Z,548
2016-10-04T13:50:53.444Z,544
2016-10-04T13:51:34.160Z,544
2016-10-04T13:52:14.849Z,532
2016-10-04T13:52:55.529Z,548
2016-10-04T13:53:36.256Z,548
2016-10-04T13:54:16.956Z,536
2016-10-04T13:54:57.686Z,544
2016-10-04T13:55:38.388Z,540
2016-10-04T13:56:19.078Z,548
2016-10-04T13:56:59.731Z,540
2016-10-04T13:57:40.423Z,548
2016-10-04T13:58:21.122Z,548
2016-10-04T13:59:01.847Z,548
2016-10-04T13:59:42.544Z,544
2016-10-04T14:00:23.225Z,540
2016-10-04T14:01:03.935Z,544
2016-10-04T14:01:46.287Z,544
2016-10-04T14:02:26.947Z,544
2016-10-04T14:03:07.630Z,544
2016-10-04T14:03:48.349Z,544
2016-10-04T14:04:29.068Z,540
2016-10-04T14:05:09.822Z,544
2016-10-04T14:05:50.496Z,544
2016-10-04T14:06:31.190Z,548
2016-10-04T14:07:11.904Z,544
2016-10-04T14:07:52.629Z,544
2016-10-04T14:08:33.351Z,544
2016-10-04T14:09:14.014Z,548
2016-10-04T14:09:54.718Z,548
2016-10-04T14:10:35.425Z,544
2016-10-04T14:11:16.092Z,544
2016-10-04T14:11:56.815Z,544
2016-10-04T14:12:37.489Z,532
2016-10-04T14:13:18.198Z,544
2016-10-04T14:13:58.909Z,548
2016-10-04T14:14:39.630Z,544
2016-10-04T14:15:20.406Z,548
2016-10-04T14:16:01.114Z,544
2016-10-04T14:16:41.819Z,544
2016-10-04T14:17:22.513Z,544
2016-10-04T14:18:03.194Z,544
2016-10-04T14:18:43.877Z,548
2016-10-04T14:19:24.537Z,544
2016-10-04T14:20:05.263Z,548
2016-10-04T14:20:45.952Z,548
2016-10-04T14:21:26.664Z,548
2016-10-04T14:22:07.410Z,544
2016-10-04T14:22:48.104Z,540
2016-10-04T14:23:28.776Z,540
2016-10-04T14:24:09.479Z,536
2016-10-04T14:24:50.188Z,540
2016-10-04T14:25:31.017Z,540
2016-10-04T14:26:11.723Z,540
2016-10-04T14:26:52.427Z,544
2016-10-04T14:27:33.142Z,544
2016-10-04T14:28:13.816Z,544
2016-10-04T14:28:54.545Z,548
2016-10-04T14:29:35.236Z,544
2016-10-04T14:30:15.954Z,544
2016-10-04T14:30:56.652Z,544
2016-10-04T14:31:37.333Z,548
2016-10-04T14:32:18.113Z,544
2016-10-04T14:32:58.803Z,544
2016-10-04T14:33:39.547Z,544
2016-10-04T14:34:20.250Z,548
2016-10-04T14:35:00.964Z,544
2016-10-04T14:35:41.645Z,548
2016-10-04T14:36:22.368Z,548
2016-10-04T14:37:03.053Z,548
2016-10-04T14:37:43.712Z,548
2016-10-04T14:38:24.490Z,552
2016-10-04T14:39:05.185Z,552
2016-10-04T14:39:45.904Z,552
2016-10-04T14:40:26.607Z,552
2016-10-04T14:41:07.283Z,548
2016-10-04T14:41:48.014Z,548
2016-10-04T14:42:28.720Z,544
2016-10-04T14:43:09.361Z,544
2016-10-04T14:43:50.750Z,548
2016-10-04T14:44:31.436Z,544
2016-10-04T14:45:12.112Z,544
2016-10-04T14:45:52.811Z,544
2016-10-04T14:46:33.494Z,540
2016-10-04T14:47:14.191Z,536
2016-10-04T14:47:54.872Z,536
2016-10-04T14:48:35.608Z,544
2016-10-04T14:49:16.310Z,548
2016-10-04T14:49:57.022Z,548
2016-10-04T14:50:37.675Z,536
2016-10-04T14:51:18.367Z,536
2016-10-04T14:51:59.082Z,536
2016-10-04T14:52:39.750Z,544
2016-10-04T14:53:20.415Z,552
2016-10-04T14:54:01.134Z,544
2016-10-04T14:54:41.862Z,548
2016-10-04T14:55:22.580Z,544
2016-10-04T14:56:03.274Z,544
2016-10-04T14:56:44.011Z,548
2016-10-04T14:57:24.708Z,548
2016-10-04T14:58:05.401Z,548
2016-10-04T14:58:46.134Z,548
2016-10-04T14:59:26.868Z,548
2016-10-04T15:00:07.538Z,544
2016-10-04T15:00:48.248Z,536
2016-10-04T15:01:28.926Z,544
2016-10-04T15:02:09.652Z,540
2016-10-04T15:02:50.380Z,540
2016-10-04T15:03:31.037Z,540
2016-10-04T15:04:11.680Z,540
2016-10-04T15:04:53.254Z,540
2016-10-04T15:05:33.964Z,540
2016-10-04T15:06:14.611Z,540
2016-10-04T15:06:55.291Z,540
2016-10-04T15:07:36.011Z,540
2016-10-04T15:08:16.752Z,536
2016-10-04T15:08:57.396Z,540
2016-10-04T15:09:38.096Z,544
2016-10-04T15:10:18.916Z,540
2016-10-04T15:10:59.670Z,536
2016-10-04T15:11:40.369Z,536
2016-10-04T15:12:21.068Z,532
2016-10-04T15:13:01.814Z,540
2016-10-04T15:13:42.509Z,540
2016-10-04T15:14:23.248Z,536
2016-10-04T15:15:03.917Z,540
2016-10-04T15:15:44.622Z,536
2016-10-04T15:16:25.332Z,548
2016-10-04T15:17:06.039Z,540
2016-10-04T15:17:46.777Z,548
2016-10-04T15:18:27.486Z,544
2016-10-04T15:19:08.195Z,548
2016-10-04T15:19:48.860Z,544
2016-10-04T15:20:29.554Z,548
2016-10-04T15:21:10.253Z,544
2016-10-04T15:21:50.975Z,548
2016-10-04T15:22:31.881Z,544
2016-10-04T15:23:12.585Z,548
2016-10-04T15:23:53.325Z,548
2016-10-04T15:24:34.136Z,544
2016-10-04T15:25:14.886Z,532
2016-10-04T15:25:55.586Z,532
2016-10-04T15:26:36.289Z,540
2016-10-04T15:27:17.055Z,544
2016-10-04T15:27:57.839Z,540
2016-10-04T15:28:38.627Z,544
2016-10-04T15:29:19.359Z,540
2016-10-04T15:30:00.052Z,544
2016-10-04T15:30:40.746Z,544
2016-10-04T15:31:21.457Z,544
2016-10-04T15:32:02.122Z,544
2016-10-04T15:32:42.823Z,544
2016-10-04T15:33:23.514Z,540
2016-10-04T15:34:04.253Z,544
2016-10-04T15:34:44.935Z,544
2016-10-04T15:35:25.649Z,540
2016-10-04T15:36:06.343Z,528
2016-10-04T15:36:46.998Z,532
2016-10-04T15:37:27.730Z,528
2016-10-04T15:38:08.457Z,524
2016-10-04T15:38:49.111Z,528
2016-10-04T15:39:29.811Z,536
2016-10-04T15:40:10.518Z,540
2016-10-04T15:40:51.185Z,540
2016-10-04T15:41:31.888Z,532
2016-10-04T15:42:12.581Z,528
2016-10-04T15:42:53.251Z,532
2016-10-04T15:43:33.939Z,532
2016-10-04T15:44:14.649Z,532
2016-10-04T15:44:55.296Z,536
2016-10-04T15:45:35.919Z,532
2016-10-04T15:46:16.628Z,536
2016-10-04T15:46:57.327Z,532
2016-10-04T15:47:38.034Z,528
2016-10-04T15:48:18.721Z,528
2016-10-04T15:48:59.445Z,532
2016-10-04T15:49:40.161Z,532
2016-10-04T15:50:21.471Z,532
2016-10-04T15:51:02.151Z,536
2016-10-04T15:51:42.855Z,536
2016-10-04T15:52:23.621Z,536
2016-10-04T15:53:04.324Z,532
2016-10-04T15:53:45.040Z,536
2016-10-04T15:54:25.702Z,532
2016-10-04T15:55:06.374Z,536
2016-10-04T15:55:47.053Z,536
2016-10-04T15:56:27.746Z,532
2016-10-04T15:57:08.435Z,536
2016-10-04T15:57:49.159Z,536
2016-10-04T15:58:29.879Z,532
2016-10-04T15:59:10.575Z,532
2016-10-04T15:59:51.312Z,532
2016-10-04T16:00:32.043Z,532
2016-10-04T16:01:12.757Z,532
2016-10-04T16:01:53.409Z,528
2016-10-04T16:02:34.110Z,532
2016-10-04T16:03:14.843Z,528
2016-10-04T16:03:55.565Z,532
2016-10-04T16:04:36.247Z,528
2016-10-04T16:05:16.972Z,528
2016-10-04T16:05:57.678Z,528
2016-10-04T16:06:38.376Z,528
2016-10-04T16:07:19.194Z,520
2016-10-04T16:07:59.862Z,520
2016-10-04T16:08:40.595Z,520
2016-10-04T16:09:21.313Z,520
2016-10-04T16:10:02.031Z,516
2016-10-04T16:10:42.750Z,516
2016-10-04T16:11:23.499Z,520
2016-10-04T16:12:04.159Z,524
2016-10-04T16:12:44.860Z,524
2016-10-04T16:13:25.568Z,524
2016-10-04T16:14:06.240Z,524
2016-10-04T16:14:46.938Z,520
2016-10-04T16:15:27.806Z,520
2016-10-04T16:16:08.441Z,524
2016-10-04T16:16:49.133Z,520
2016-10-04T16:17:29.795Z,520
2016-10-04T16:18:10.501Z,520
2016-10-04T16:18:51.226Z,516
2016-10-04T16:19:31.948Z,516
2016-10-04T16:20:12.642Z,520
2016-10-04T16:20:53.316Z,516
2016-10-04T16:21:34.075Z,520
2016-10-04T16:22:14.761Z,520
2016-10-04T16:22:55.476Z,520
2016-10-04T16:23:36.312Z,520
2016-10-04T16:24:17.072Z,516
2016-10-04T16:24:57.775Z,516
2016-10-04T16:25:38.506Z,516
2016-10-04T16:26:19.228Z,516
2016-10-04T16:27:00.012Z,516
2016-10-04T16:27:40.643Z,516
2016-10-04T16:28:21.335Z,512
2016-10-04T16:29:02.028Z,512
2016-10-04T16:29:42.715Z,508
2016-10-04T16:30:24.462Z,512
2016-10-04T16:31:05.113Z,508
2016-10-04T16:31:46.814Z,512
2016-10-04T16:32:27.447Z,512
2016-10-04T16:33:08.152Z,508
2016-10-04T16:33:48.831Z,508
2016-10-04T16:34:29.536Z,508
2016-10-04T16:35:10.227Z,508
2016-10-04T16:35:50.938Z,504
2016-10-04T16:36:31.652Z,508
2016-10-04T16:37:12.323Z,508
2016-10-04T16:37:53.000Z,508
2016-10-04T16:38:34.441Z,504
2016-10-04T16:39:15.245Z,504
2016-10-04T16:39:56.097Z,508
2016-10-04T16:40:36.827Z,504
2016-10-04T16:41:18.281Z,504
2016-10-04T16:41:58.380Z,504
2016-10-04T16:42:39.121Z,504
2016-10-04T16:43:19.821Z,504
2016-10-04T16:44:00.511Z,500
2016-10-04T16:44:41.222Z,504
2016-10-04T16:45:21.883Z,500
2016-10-04T16:46:02.542Z,500
2016-10-04T16:46:43.224Z,504
2016-10-04T16:47:23.943Z,500
2016-10-04T16:48:04.733Z,500
2016-10-04T16:48:45.453Z,500
2016-10-04T16:49:26.120Z,500
2016-10-04T16:50:06.755Z,500
2016-10-04T16:50:47.478Z,496
2016-10-04T16:51:28.161Z,500
2016-10-04T16:52:08.878Z,496
2016-10-04T16:52:49.604Z,500
2016-10-04T16:53:30.383Z,496
2016-10-04T16:54:12.172Z,496
2016-10-04T16:54:52.915Z,496
2016-10-04T16:55:33.596Z,496
2016-10-04T16:56:14.271Z,496
2016-10-04T16:56:54.959Z,492
2016-10-04T16:57:35.610Z,492
2016-10-04T16:58:16.483Z,492
2016-10-04T16:58:57.188Z,492
2016-10-04T16:59:37.901Z,492
2016-10-04T17:00:18.588Z,492
2016-10-04T17:00:59.313Z,488
2016-10-04T17:01:40.012Z,492
2016-10-04T17:02:21.694Z,488
2016-10-04T17:03:02.356Z,488
2016-10-04T17:03:43.010Z,488
2016-10-04T17:04:23.702Z,488
2016-10-04T17:05:04.404Z,488
2016-10-04T17:05:45.062Z,488
2016-10-04T17:06:25.808Z,484
2016-10-04T17:07:07.424Z,488
2016-10-04T17:07:48.133Z,484
2016-10-04T17:08:28.833Z,488
2016-10-04T17:09:09.508Z,484
2016-10-04T17:09:50.150Z,484
2016-10-04T17:10:30.853Z,484
2016-10-04T17:11:11.573Z,480
2016-10-04T17:11:52.338Z,484
2016-10-04T17:12:33.127Z,484
2016-10-04T17:13:13.806Z,480
2016-10-04T17:13:54.543Z,484
2016-10-04T17:14:35.230Z,480
2016-10-04T17:15:15.904Z,480
2016-10-04T17:15:56.631Z,480
2016-10-04T17:16:37.381Z,476
2016-10-04T17:17:18.100Z,476
2016-10-04T17:17:58.817Z,476
2016-10-04T17:18:39.518Z,476
2016-10-04T17:19:20.212Z,476
2016-10-04T17:20:00.884Z,476
2016-10-04T17:20:41.591Z,476
2016-10-04T17:21:22.326Z,472
2016-10-04T17:22:03.044Z,472
2016-10-04T17:22:43.791Z,472
2016-10-04T17:23:24.512Z,476
2016-10-04T17:24:05.310Z,472
2016-10-04T17:24:46.027Z,472
2016-10-04T17:25:26.721Z,472
2016-10-04T17:26:07.423Z,476
2016-10-04T17:26:48.155Z,472
2016-10-04T17:27:28.826Z,472
2016-10-04T17:28:09.534Z,472
2016-10-04T17:28:50.212Z,472
2016-10-04T17:29:30.888Z,468
2016-10-04T17:30:11.645Z,472
2016-10-04T17:30:52.332Z,472
2016-10-04T17:31:33.895Z,472
2016-10-04T17:32:14.581Z,468
2016-10-04T17:32:55.247Z,468
2016-10-04T17:33:35.915Z,468
2016-10-04T17:34:16.710Z,468
2016-10-04T17:34:57.388Z,468
2016-10-04T17:35:38.112Z,468
2016-10-04T17:36:18.958Z,468
2016-10-04T17:36:59.954Z,468
2016-10-04T17:37:40.978Z,472
2016-10-04T17:38:21.811Z,472
2016-10-04T17:39:02.578Z,468
2016-10-04T17:39:43.424Z,468
2016-10-04T17:40:24.366Z,468
2016-10-04T17:41:05.343Z,468
2016-10-04T17:41:46.239Z,468
2016-10-04T17:42:27.248Z,468
2016-10-04T17:43:08.159Z,468
2016-10-04T17:43:48.966Z,468
2016-10-04T17:44:30.060Z,468
2016-10-04T17:45:10.999Z,468
2016-10-04T17:45:51.906Z,468
2016-10-04T17:46:32.681Z,468
2016-10-04T17:47:13.590Z,468
2016-10-04T17:47:54.450Z,464
2016-10-04T17:48:35.315Z,464
2016-10-04T17:49:16.127Z,468
2016-10-04T17:49:56.954Z,468
2016-10-04T17:50:37.761Z,468
2016-10-04T17:51:18.556Z,468
2016-10-04T17:51:59.384Z,468
2016-10-04T17:52:40.237Z,468
2016-10-04T17:53:21.067Z,468
2016-10-04T17:54:01.829Z,468
2016-10-04T17:54:42.687Z,468
2016-10-04T17:55:23.425Z,468
2016-10-04T17:56:04.287Z,468
2016-10-04T17:56:45.193Z,468
2016-10-04T17:57:25.897Z,468
2016-10-04T17:58:06.631Z,468
2016-10-04T17:58:47.542Z,468
2016-10-04T17:59:28.297Z,468
2016-10-04T18:00:09.100Z,488
2016-10-04T18:00:49.880Z,492
2016-10-04T18:01:30.550Z,492
2016-10-04T18:02:11.324Z,492
2016-10-04T18:02:52.109Z,492
2016-10-04T18:03:32.857Z,496
2016-10-04T18:04:13.618Z,496
2016-10-04T18:04:54.315Z,496
2016-10-04T18:05:35.036Z,496
2016-10-04T18:06:15.773Z,496
2016-10-04T18:06:56.466Z,496
2016-10-04T18:07:37.176Z,492
2016-10-04T18:08:17.869Z,492
2016-10-04T18:08:58.577Z,492
2016-10-04T18:09:39.319Z,496
2016-10-04T18:10:20.094Z,496
2016-10-04T18:11:00.754Z,492
2016-10-04T18:11:41.518Z,492
2016-10-04T18:12:22.197Z,492
2016-10-04T18:13:02.957Z,492
2016-10-04T18:13:43.710Z,492
2016-10-04T18:14:24.390Z,492
2016-10-04T18:15:05.110Z,492
2016-10-04T18:15:45.804Z,492
2016-10-04T18:16:26.480Z,492
2016-10-04T18:17:07.169Z,492
2016-10-04T18:17:47.881Z,492
2016-10-04T18:18:28.529Z,492
2016-10-04T18:19:09.215Z,492
2016-10-04T18:19:49.912Z,492
2016-10-04T18:20:30.563Z,492
2016-10-04T18:21:12.281Z,492
2016-10-04T18:21:52.960Z,492
2016-10-04T18:22:33.836Z,492
2016-10-04T18:23:14.524Z,492
2016-10-04T18:23:55.194Z,492
2016-10-04T18:24:35.843Z,492
2016-10-04T18:25:16.568Z,476
2016-10-04T18:25:57.353Z,484
2016-10-04T18:26:38.053Z,484
2016-10-04T18:27:19.575Z,492
2016-10-04T18:28:00.298Z,480
2016-10-04T18:28:40.976Z,496
2016-10-04T18:29:21.696Z,492
2016-10-04T18:30:02.352Z,496
2016-10-04T18:30:43.088Z,492
2016-10-04T18:31:23.818Z,492
2016-10-04T18:32:04.574Z,492
2016-10-04T18:32:45.253Z,492
2016-10-04T18:33:25.975Z,492
2016-10-04T18:34:06.632Z,492
2016-10-04T18:34:47.307Z,496
2016-10-04T18:35:28.023Z,492
2016-10-04T18:36:08.721Z,492
2016-10-04T18:36:49.437Z,496
2016-10-04T18:37:30.125Z,496
2016-10-04T18:38:10.859Z,492
2016-10-04T18:38:51.552Z,492
2016-10-04T18:39:32.290Z,44
2016-10-04T18:40:12.959Z,44
2016-10-04T18:40:53.624Z,44
2016-10-04T18:41:34.310Z,44
2016-10-04T18:42:15.060Z,44
2016-10-04T18:42:55.815Z,44
2016-10-04T18:43:36.532Z,44